This is the latest recevied weather packets stored in our database for station/object DH0DM-13. If no packets are shown the sender has not sent any weather packets the latest 10 day(s).
| Time | Temp. | Humidity | Pressure | Rain* | Wind** | Luminosity | Snow |
|---|---|---|---|---|---|---|---|
| 1777272942 | 11.67° C | 54% | 997.6 hPa | 0 mm | 0 m/s | - | - |
| 1777272341 | 11.11° C | 55% | 997.5 hPa | 0 mm | 0.89 m/s, 176° | - | - |
| 1777271740 | 11.11° C | 54% | 997.6 hPa | 0 mm | 1.34 m/s, 112° | - | - |
| 1777271139 | 11.11° C | 55% | 997.7 hPa | 0 mm | 0 m/s | - | - |
| 1777270538 | 10° C | 56% | 997.5 hPa | 0 mm | 0 m/s | - | - |
| 1777269938 | 9.44° C | 57% | 997.7 hPa | 0 mm | 0 m/s | - | - |
| 1777269337 | 8.33° C | 65% | 997.5 hPa | 0 mm | 0 m/s | - | - |
| 1777268736 | 7.78° C | 66% | 997.7 hPa | 0 mm | 0.89 m/s, 129° | - | - |
| 1777268135 | 6.67° C | 68% | 997.6 hPa | 0 mm | 0 m/s | - | - |
| 1777267534 | 5.56° C | 72% | 997.6 hPa | 0 mm | 0 m/s | - | - |
| 1777266933 | 3.89° C | 78% | 997.6 hPa | 0 mm | 0 m/s | - | - |
| 1777266332 | 2.22° C | 84% | 997.6 hPa | 0 mm | 0 m/s | - | - |
| 1777265731 | 0.56° C | 89% | 997.3 hPa | 0 mm | 0 m/s | - | - |
| 1777265131 | 0.56° C | 89% | 997.6 hPa | 0 mm | 0 m/s | - | - |
| 1777264529 | -0.56° C | 92% | 997.4 hPa | 0 mm | 0.89 m/s, 106° | - | - |
| 1777263929 | -1.11° C | 90% | 997.5 hPa | 0 mm | 0 m/s | - | - |
| 1777263328 | -0.56° C | 89% | 997.4 hPa | 0 mm | 0 m/s | - | - |
| 1777262727 | -0.56° C | 90% | 997.2 hPa | 0 mm | 0.89 m/s, 110° | - | - |
| 1777262126 | -1.11° C | 91% | 997.2 hPa | 0 mm | 0.45 m/s, 132° | - | - |
| 1777261525 | -0.56° C | 91% | 997.5 hPa | 0 mm | 0.89 m/s, 105° | - | - |
| 1777260924 | -1.11° C | 91% | 997.2 hPa | 0 mm | 0 m/s | - | - |
| 1777260323 | -0.56° C | 91% | 997.2 hPa | 0 mm | 0 m/s | - | - |
| 1777259722 | -0.56° C | 92% | 997.3 hPa | 0 mm | 0 m/s | - | - |
| 1777259121 | -1.11° C | 92% | 997.4 hPa | 0 mm | 0 m/s | - | - |
| 1777258521 | -1.11° C | 92% | 997.3 hPa | 0 mm | 0 m/s | - | - |
* Rain since midnight (hover to see other rain measurements)
** Current wind speed in m/s (hover to see current wind gust speed)